Terminal Aerodrome Forecast
Issued by NWS Albuquerque, NM

Home | Current Version | Previous Version | Text Only | Print | Product List | Glossary On
Versions: 1 2 3 4 5 6 7 8 9 10 11 12 13 14 15 16 17 18 19 20 21 22 23 24
000
FTUS45 KABQ 300100 AAA
TAFABQ
TAF AMD
KABQ 300120Z 3001/3024 09008KT P6SM VCTS SCT050CB BKN100
      TEMPO 3001/3002 VRB15G25KT 5SM TSRA BKN050CB
     FM300300 09010KT P6SM VCSH SCT060 BKN120
     FM300900 VRB05KT P6SM SCT050 SCT080
     FM301800 28010KT P6SM FEW080=

USA.gov is the U.S. government's official web portal to all federal, state and local government web resources and services.